createdAt,value
2022-12-31T00:00:21.596Z,69.50
2022-12-31T00:02:48.735Z,69.89
2022-12-31T00:05:15.831Z,69.25
2022-12-31T00:10:09.377Z,69.17
2022-12-31T00:12:36.743Z,69.10
2022-12-31T00:15:04.032Z,69.53
2022-12-31T00:17:31.141Z,68.47
2022-12-31T00:19:58.057Z,68.82
2022-12-31T00:22:25.177Z,69.33
2022-12-31T00:24:52.148Z,68.83
2022-12-31T00:27:19.448Z,69.26
2022-12-31T00:29:46.628Z,69.07
2022-12-31T00:32:13.926Z,69.25
2022-12-31T00:34:40.900Z,69.26
2022-12-31T00:37:08.209Z,68.45
2022-12-31T00:39:35.165Z,68.96
2022-12-31T00:42:02.715Z,69.51
2022-12-31T00:44:29.738Z,69.67
2022-12-31T00:46:56.711Z,69.21
2022-12-31T00:49:23.657Z,69.04
2022-12-31T00:51:50.952Z,69.08
2022-12-31T00:54:17.896Z,68.63
2022-12-31T00:56:45.158Z,67.93
2022-12-31T00:59:12.091Z,68.09
2022-12-31T01:01:40.816Z,68.24
2022-12-31T01:04:15.196Z,69.05
2022-12-31T01:06:43.920Z,69.12
2022-12-31T01:09:12.709Z,68.35
2022-12-31T01:11:39.868Z,68.97
2022-12-31T01:14:14.626Z,69.11
2022-12-31T01:16:51.172Z,69.62
2022-12-31T01:19:22.334Z,69.41
2022-12-31T01:21:51.419Z,68.62
2022-12-31T01:24:19.398Z,69.01
2022-12-31T01:26:47.034Z,69.75
2022-12-31T01:29:14.796Z,69.35
2022-12-31T01:31:42.454Z,70.07
2022-12-31T01:34:09.713Z,70.85
2022-12-31T01:36:38.420Z,69.68
2022-12-31T01:39:08.538Z,70.30
2022-12-31T01:41:43.713Z,70.73
2022-12-31T01:44:13.567Z,71.83
2022-12-31T01:46:58.494Z,71.64
2022-12-31T01:49:44.689Z,71.82
2022-12-31T01:52:38.602Z,72.61
2022-12-31T01:55:14.930Z,72.92
2022-12-31T01:57:45.747Z,72.67
2022-12-31T02:00:13.344Z,73.47
2022-12-31T02:02:40.447Z,73.81
2022-12-31T02:05:26.091Z,73.58
2022-12-31T02:07:54.749Z,73.87
2022-12-31T02:10:21.699Z,74.10
2022-12-31T02:12:50.545Z,73.91
2022-12-31T02:15:22.925Z,74.59
2022-12-31T02:18:10.207Z,74.95
2022-12-31T02:21:09.435Z,75.31
2022-12-31T02:23:53.344Z,74.72
2022-12-31T02:26:54.169Z,74.60
2022-12-31T02:29:35.969Z,73.80
2022-12-31T02:32:07.767Z,74.75
2022-12-31T02:34:40.644Z,75.38
2022-12-31T02:37:12.371Z,75.94
2022-12-31T02:39:42.123Z,74.88
2022-12-31T02:42:11.594Z,74.64
2022-12-31T02:44:41.612Z,74.50
2022-12-31T02:47:08.694Z,74.65
2022-12-31T02:50:25.464Z,73.95
2022-12-31T02:53:29.535Z,74.47
2022-12-31T02:56:21.481Z,73.80
2022-12-31T02:59:33.341Z,72.83
2022-12-31T03:02:15.316Z,72.02
2022-12-31T03:04:56.049Z,73.11
2022-12-31T03:07:23.960Z,72.62
2022-12-31T03:09:51.923Z,72.78
2022-12-31T03:12:43.454Z,73.12
2022-12-31T03:15:21.501Z,73.80
2022-12-31T03:18:02.804Z,74.24
2022-12-31T03:21:02.622Z,73.07
2022-12-31T03:23:41.702Z,73.00
2022-12-31T03:26:12.984Z,71.95
2022-12-31T03:28:47.732Z,72.17
2022-12-31T03:31:16.479Z,71.99
2022-12-31T03:33:43.549Z,72.92
2022-12-31T03:36:15.354Z,72.27
2022-12-31T03:38:42.889Z,72.03
2022-12-31T03:41:11.133Z,71.93
2022-12-31T03:43:38.478Z,71.00
2022-12-31T03:46:05.639Z,70.73
2022-12-31T03:48:32.912Z,70.24
2022-12-31T03:50:59.929Z,70.78
2022-12-31T03:53:27.540Z,70.31
2022-12-31T03:55:55.020Z,70.20
2022-12-31T03:58:22.945Z,69.88
2022-12-31T04:00:50.562Z,69.37
2022-12-31T04:03:17.962Z,68.99
2022-12-31T04:05:45.003Z,69.57
2022-12-31T04:08:11.979Z,69.36
2022-12-31T04:10:39.193Z,68.76
2022-12-31T04:13:06.124Z,69.06
2022-12-31T04:15:33.376Z,70.26
2022-12-31T04:18:00.323Z,70.96
2022-12-31T04:20:27.596Z,70.41
2022-12-31T04:22:54.588Z,71.38
2022-12-31T04:25:21.707Z,71.31
2022-12-31T04:27:48.636Z,70.88
2022-12-31T04:30:15.989Z,72.30
2022-12-31T04:32:43.191Z,71.93
2022-12-31T04:35:12.441Z,71.26
2022-12-31T04:37:39.471Z,71.85
2022-12-31T04:40:08.767Z,71.31
2022-12-31T04:42:36.559Z,71.34
2022-12-31T04:45:05.045Z,70.55
2022-12-31T04:47:32.016Z,70.63
2022-12-31T04:49:59.226Z,71.44
2022-12-31T04:52:26.240Z,71.35
2022-12-31T04:54:53.430Z,71.87
2022-12-31T04:57:20.390Z,72.66
2022-12-31T04:59:47.830Z,72.71
2022-12-31T05:02:15.106Z,72.84
2022-12-31T05:04:43.864Z,72.23
2022-12-31T05:07:10.801Z,71.99
2022-12-31T05:09:37.901Z,72.82
2022-12-31T05:12:05.265Z,73.63
2022-12-31T05:14:32.504Z,73.60
2022-12-31T05:16:59.510Z,74.01
2022-12-31T05:19:26.776Z,73.82
2022-12-31T05:22:19.626Z,74.10
2022-12-31T05:24:46.853Z,74.38
2022-12-31T05:27:15.030Z,74.44
2022-12-31T05:29:41.981Z,74.46
2022-12-31T05:32:09.148Z,74.94
2022-12-31T05:34:36.111Z,75.02
2022-12-31T05:37:03.406Z,75.34
2022-12-31T05:39:30.382Z,73.67
2022-12-31T05:41:57.630Z,73.81
2022-12-31T05:44:24.572Z,74.55
2022-12-31T05:46:51.615Z,73.18
2022-12-31T05:49:18.866Z,73.04
2022-12-31T05:51:46.548Z,73.13
2022-12-31T05:54:13.682Z,72.80
2022-12-31T05:56:40.639Z,73.29
2022-12-31T05:59:07.774Z,73.46
2022-12-31T06:01:34.926Z,72.06
2022-12-31T06:04:02.071Z,72.80
2022-12-31T06:06:29.224Z,72.20
2022-12-31T06:08:56.301Z,72.38
2022-12-31T06:11:23.593Z,71.37
2022-12-31T06:13:50.783Z,70.74
2022-12-31T06:16:17.865Z,69.37
2022-12-31T06:18:50.367Z,69.20
2022-12-31T06:21:18.929Z,69.60
2022-12-31T06:23:46.416Z,70.15
2022-12-31T06:26:13.580Z,70.13
2022-12-31T06:28:41.168Z,70.81
2022-12-31T06:31:11.917Z,71.00
2022-12-31T06:33:39.545Z,71.63
2022-12-31T06:36:11.213Z,71.34
2022-12-31T06:38:40.900Z,71.50
2022-12-31T06:41:11.028Z,70.85
2022-12-31T06:43:40.778Z,70.80
2022-12-31T06:46:11.450Z,70.29
2022-12-31T06:48:39.569Z,69.47
2022-12-31T06:51:16.771Z,68.82
2022-12-31T06:53:47.242Z,68.68
2022-12-31T06:56:20.626Z,68.89
2022-12-31T06:58:48.925Z,68.97
2022-12-31T07:01:44.449Z,68.83
2022-12-31T07:04:49.136Z,68.73
2022-12-31T07:07:53.409Z,68.22
2022-12-31T07:11:00.244Z,68.02
2022-12-31T07:13:35.904Z,69.27
2022-12-31T07:16:55.468Z,69.42
2022-12-31T07:19:37.327Z,68.53
2022-12-31T07:22:05.566Z,69.34
2022-12-31T07:24:32.932Z,68.11
2022-12-31T07:27:59.261Z,68.01
2022-12-31T07:30:57.705Z,67.59
2022-12-31T07:33:46.754Z,67.91
2022-12-31T07:36:42.659Z,67.40
2022-12-31T07:39:22.134Z,67.86
2022-12-31T07:42:06.946Z,67.66
2022-12-31T07:45:03.439Z,67.71
2022-12-31T07:47:30.949Z,66.60
2022-12-31T07:49:58.668Z,66.11
2022-12-31T07:52:26.236Z,66.28
2022-12-31T07:54:53.436Z,65.72
2022-12-31T07:57:23.513Z,65.87
2022-12-31T08:00:13.099Z,66.09
2022-12-31T08:03:01.821Z,66.63
2022-12-31T08:05:58.712Z,66.35
2022-12-31T08:09:03.945Z,64.86
2022-12-31T08:11:57.716Z,64.92
2022-12-31T08:14:26.916Z,64.59
2022-12-31T08:16:55.081Z,64.82
2022-12-31T08:19:32.229Z,65.29
2022-12-31T08:22:24.124Z,64.90
2022-12-31T08:25:20.919Z,63.77
2022-12-31T08:27:54.003Z,64.77
2022-12-31T08:30:22.060Z,65.04
2022-12-31T08:33:28.486Z,64.63
2022-12-31T08:36:29.463Z,63.85
2022-12-31T08:39:33.960Z,64.03
2022-12-31T08:42:09.438Z,62.82
2022-12-31T08:44:52.996Z,62.47
2022-12-31T08:47:59.512Z,62.41
2022-12-31T08:50:27.989Z,62.25
2022-12-31T08:52:55.460Z,62.50
2022-12-31T08:55:24.548Z,61.25
2022-12-31T08:58:38.585Z,61.64
2022-12-31T09:01:07.792Z,62.57
2022-12-31T09:03:57.830Z,61.46
2022-12-31T09:06:42.633Z,62.00
2022-12-31T09:09:54.617Z,62.84
2022-12-31T09:12:32.537Z,61.42
2022-12-31T09:15:05.532Z,63.46
2022-12-31T09:18:01.489Z,63.51
2022-12-31T09:20:42.862Z,63.10
2022-12-31T09:23:12.531Z,60.84
2022-12-31T09:25:55.922Z,62.84
2022-12-31T09:28:59.281Z,62.64
2022-12-31T09:31:48.774Z,62.15
2022-12-31T09:34:31.662Z,63.39
2022-12-31T09:37:06.582Z,62.36
2022-12-31T09:39:46.248Z,63.12
2022-12-31T09:43:11.075Z,63.12
2022-12-31T09:46:22.542Z,61.49
2022-12-31T09:49:32.392Z,60.30
2022-12-31T09:52:11.419Z,61.23
2022-12-31T09:55:23.857Z,60.15
2022-12-31T09:58:06.915Z,59.28
2022-12-31T10:00:50.315Z,59.24
2022-12-31T10:03:29.355Z,60.09
2022-12-31T10:06:33.973Z,59.96
2022-12-31T10:09:27.572Z,58.84
2022-12-31T10:12:21.137Z,58.78
2022-12-31T10:15:38.000Z,59.03
2022-12-31T10:19:09.142Z,57.57
2022-12-31T10:22:09.315Z,57.43
2022-12-31T10:25:14.940Z,57.53
2022-12-31T10:28:00.424Z,58.22
2022-12-31T10:30:35.678Z,58.34
2022-12-31T10:33:25.497Z,59.03
2022-12-31T10:36:18.299Z,59.07
2022-12-31T10:39:24.204Z,57.15
2022-12-31T10:42:32.054Z,57.66
2022-12-31T10:45:33.672Z,57.37
2022-12-31T10:48:16.097Z,59.01
2022-12-31T10:51:09.983Z,59.17
2022-12-31T10:54:23.989Z,59.75
2022-12-31T10:57:12.578Z,58.64
2022-12-31T10:59:58.689Z,60.28
2022-12-31T11:02:40.622Z,59.74
2022-12-31T11:05:32.644Z,58.18
2022-12-31T11:08:05.385Z,59.79
2022-12-31T11:11:12.014Z,60.48
2022-12-31T11:14:19.999Z,60.35
2022-12-31T11:17:05.794Z,60.69
2022-12-31T11:20:03.999Z,59.90
2022-12-31T11:23:00.639Z,59.58
2022-12-31T11:26:08.540Z,61.05
2022-12-31T11:28:53.257Z,60.47
2022-12-31T11:31:42.621Z,59.55
2022-12-31T11:34:22.334Z,61.09
2022-12-31T11:37:22.184Z,61.37
2022-12-31T11:40:42.053Z,60.95
2022-12-31T11:44:09.903Z,63.70
2022-12-31T11:47:03.963Z,64.53
2022-12-31T11:49:46.737Z,64.94
2022-12-31T11:52:53.896Z,64.86
2022-12-31T11:56:00.221Z,64.48
2022-12-31T11:58:28.934Z,64.97
2022-12-31T12:01:18.523Z,64.87
2022-12-31T12:03:46.315Z,64.22
2022-12-31T12:06:18.256Z,65.19
2022-12-31T12:08:46.465Z,63.47
2022-12-31T12:11:28.734Z,61.95
2022-12-31T12:13:56.425Z,60.74
2022-12-31T12:16:25.853Z,61.43
2022-12-31T12:19:06.696Z,61.79
2022-12-31T12:21:34.710Z,62.36
2022-12-31T12:24:27.800Z,61.72
2022-12-31T12:26:57.369Z,61.28
2022-12-31T12:29:29.751Z,64.03
2022-12-31T12:32:02.778Z,62.45
2022-12-31T12:34:39.484Z,61.79
2022-12-31T12:37:35.337Z,63.71
2022-12-31T12:40:33.325Z,64.17
2022-12-31T12:43:02.709Z,64.86
2022-12-31T12:45:47.663Z,66.09
2022-12-31T12:48:29.759Z,64.33
2022-12-31T13:22:50.340Z,56.47
2022-12-31T13:32:46.625Z,56.89
2022-12-31T13:36:15.565Z,56.29
2022-12-31T13:39:47.027Z,56.57
2022-12-31T13:42:22.675Z,55.60
2022-12-31T13:45:02.910Z,56.31
2022-12-31T13:47:41.998Z,56.05
2022-12-31T13:50:26.097Z,55.51
2022-12-31T13:53:29.396Z,55.79
2022-12-31T13:56:04.004Z,55.37
2022-12-31T13:58:48.704Z,55.37
2022-12-31T14:01:34.438Z,55.40
2022-12-31T14:04:27.403Z,55.93
2022-12-31T14:07:12.629Z,54.99
2022-12-31T14:09:42.519Z,53.82
2022-12-31T14:12:27.770Z,54.45
2022-12-31T14:15:06.824Z,54.45
2022-12-31T14:17:57.847Z,54.51
2022-12-31T14:20:57.432Z,54.35
2022-12-31T14:23:54.691Z,54.59
2022-12-31T14:30:01.929Z,72.79
2022-12-31T14:32:37.953Z,73.71
2022-12-31T14:35:47.641Z,74.25
2022-12-31T14:38:51.532Z,73.36
2022-12-31T14:42:15.084Z,74.78
2022-12-31T14:45:30.093Z,75.94
2022-12-31T14:48:33.374Z,75.10
2022-12-31T14:51:03.268Z,75.77
2022-12-31T14:53:30.664Z,73.33
2022-12-31T14:56:04.614Z,74.95
2022-12-31T14:58:36.786Z,74.75
2022-12-31T15:01:29.108Z,74.58
2022-12-31T15:03:58.639Z,74.82
2022-12-31T15:06:41.225Z,75.64
2022-12-31T15:09:20.815Z,76.50
2022-12-31T15:12:47.146Z,76.72
2022-12-31T15:15:33.512Z,76.04
2022-12-31T15:18:46.681Z,76.30
2022-12-31T15:21:54.344Z,76.34
2022-12-31T15:24:27.594Z,76.54
2022-12-31T15:31:18.076Z,76.51
2022-12-31T15:36:25.942Z,76.26
2022-12-31T15:42:18.888Z,76.70
2022-12-31T15:47:31.825Z,76.08
2022-12-31T15:52:48.113Z,76.28
2022-12-31T15:57:51.221Z,75.40
2022-12-31T16:02:55.672Z,73.37
2022-12-31T16:08:00.157Z,72.55
2022-12-31T16:13:02.312Z,71.98
2022-12-31T16:18:18.948Z,72.21
2022-12-31T16:23:27.734Z,71.42
2022-12-31T16:28:32.837Z,70.60
2022-12-31T16:33:35.082Z,70.57
2022-12-31T16:38:38.323Z,70.50
2022-12-31T16:43:43.244Z,70.97
2022-12-31T16:48:48.838Z,71.49
2022-12-31T16:53:52.476Z,73.12
2022-12-31T16:59:06.070Z,73.40
2022-12-31T17:04:12.542Z,73.55
2022-12-31T17:09:33.718Z,74.02
2022-12-31T17:14:50.584Z,74.80
2022-12-31T17:20:00.330Z,75.46
2022-12-31T17:25:09.373Z,76.25
2022-12-31T17:30:32.902Z,75.75
2022-12-31T17:35:42.092Z,74.14
2022-12-31T17:40:51.348Z,73.74
2022-12-31T17:45:55.237Z,73.88
2022-12-31T17:51:00.742Z,74.91
2022-12-31T17:56:06.951Z,73.49
2022-12-31T18:01:10.402Z,73.07
2022-12-31T18:06:16.871Z,74.58
2022-12-31T18:11:23.484Z,74.10
2022-12-31T18:16:25.704Z,74.18
2022-12-31T18:21:34.506Z,75.03
2022-12-31T18:26:36.893Z,74.69
2022-12-31T18:31:39.706Z,75.71
2022-12-31T18:36:42.576Z,75.02
2022-12-31T18:41:49.577Z,75.82
2022-12-31T18:46:51.862Z,76.17
2022-12-31T18:51:57.270Z,75.90
2022-12-31T18:56:59.569Z,75.31
2022-12-31T19:02:01.834Z,75.22
2022-12-31T19:07:04.353Z,75.45
2022-12-31T19:12:07.155Z,77.01
2022-12-31T19:22:15.808Z,78.93
2022-12-31T19:27:18.087Z,79.29
2022-12-31T19:32:20.375Z,80.32
2022-12-31T19:37:22.466Z,81.31
2022-12-31T19:42:25.827Z,82.14
2022-12-31T19:47:28.420Z,81.19
2022-12-31T19:52:30.566Z,80.82
2022-12-31T19:57:32.875Z,81.55
2022-12-31T20:02:35.434Z,80.09
2022-12-31T20:07:37.978Z,80.41
2022-12-31T20:12:44.397Z,79.57
2022-12-31T20:17:46.947Z,78.47
2022-12-31T20:22:49.279Z,78.20
2022-12-31T20:27:55.913Z,76.99
2022-12-31T20:32:58.292Z,77.04
2022-12-31T20:38:00.480Z,77.69
2022-12-31T20:43:02.650Z,77.69
2022-12-31T20:48:05.217Z,76.49
2022-12-31T20:53:07.523Z,75.78
2022-12-31T20:58:09.637Z,76.22
2022-12-31T21:03:36.656Z,75.11
2022-12-31T21:08:35.149Z,76.95
2022-12-31T21:13:37.572Z,76.10
2022-12-31T21:18:39.860Z,74.94
2022-12-31T21:23:42.258Z,72.68
2022-12-31T21:28:44.636Z,72.41
2022-12-31T21:33:48.761Z,72.65
2022-12-31T21:38:51.122Z,70.69
2022-12-31T21:43:53.375Z,70.64
2022-12-31T21:49:00.677Z,70.29
2022-12-31T21:54:03.033Z,69.98
2022-12-31T21:59:24.184Z,69.48
2022-12-31T22:09:49.256Z,69.54
2022-12-31T22:15:15.612Z,70.16
2022-12-31T22:20:29.320Z,70.33
2022-12-31T22:25:35.362Z,69.91
2022-12-31T22:30:37.697Z,69.12
2022-12-31T22:35:40.052Z,70.11
2022-12-31T22:40:42.182Z,69.37
2022-12-31T22:45:44.426Z,68.78
2022-12-31T22:50:56.410Z,68.99
2022-12-31T22:55:58.749Z,68.60
2022-12-31T23:01:03.687Z,68.48
2022-12-31T23:06:05.946Z,68.82
2022-12-31T23:11:11.387Z,69.35
2022-12-31T23:16:32.192Z,69.06
2022-12-31T23:21:53.145Z,68.56
2022-12-31T23:26:59.076Z,67.79
2022-12-31T23:32:01.251Z,69.09
2022-12-31T23:37:04.359Z,68.33
2022-12-31T23:42:06.605Z,69.59
2022-12-31T23:47:08.907Z,68.06
2022-12-31T23:52:11.282Z,70.04
2022-12-31T23:57:13.438Z,68.11
